< < Back
Terminal Aerodrome Forecast


Current Version              Previous Versions:   1  2  3  4  5  6  7  8  9  

Terminal Aerodrome Forecast

673
FTUS42 KJAX 012341
TAFJAX
TAF
KJAX 012341Z 0200/0224 08007KT P6SM SCT060
     FM020900 06003KT 5SM BR SCT010 BKN200
     FM021300 10012KT P6SM SCT040 BKN200=

Latest METAR

554
SAUS80 KWBC 020400
MTRJAX
METAR KJAX 020356Z 00000KT 7SM FEW250 15/15 A3017 RMK AO2 SLP216
T01500150


USA.gov is the U.S. government's official web portal to all federal, state and local government web resources and services.